Time;durP1;ratioP1;P1;durP2;ratioP2;P2;SDS_P1;SDS_P2;PMS_P1;PMS_P2;Temp;Humidity;BMP_temperature;BMP_pressure;BME280_temperature;BME280_humidity;BME280_pressure;Samples;Min_cycle;Max_cycle;Signal;HPM_P1;HPM_P2
2021/09/12 00:02:05;;;;;;;4.67;3.83;;;13.70;99.90;13.40;97042.00;;;;5065467;28;20227;-69
2021/09/12 00:04:54;;;;;;;4.20;3.80;;;14.00;99.90;13.40;97034.00;;;;5066429;28;20204;-69
2021/09/12 00:07:43;;;;;;;5.90;3.83;;;13.80;99.90;13.50;97031.00;;;;5065344;28;20498;-69
2021/09/12 00:10:32;;;;;;;3.97;3.53;;;13.70;99.90;13.40;97030.00;;;;5066216;28;20675;-68
2021/09/12 00:13:21;;;;;;;3.67;3.37;;;13.70;99.90;13.30;97028.00;;;;5065223;28;20227;-69
2021/09/12 00:16:10;;;;;;;4.70;4.13;;;13.60;99.90;13.10;97039.00;;;;5065662;28;20209;-69
2021/09/12 00:19:00;;;;;;;4.13;3.80;;;13.50;99.90;13.10;97035.00;;;;5066073;28;20212;-69
2021/09/12 00:21:49;;;;;;;4.60;4.00;;;13.40;99.90;13.10;97036.00;;;;5072622;28;20211;-69
2021/09/12 00:24:38;;;;;;;4.53;4.13;;;13.40;99.90;13.40;97044.00;;;;5082120;28;20207;-69
2021/09/12 00:27:27;;;;;;;5.60;4.10;;;13.40;99.90;13.40;97023.00;;;;5071597;28;20204;-69
2021/09/12 00:30:16;;;;;;;4.57;4.07;;;13.40;99.90;13.60;97030.00;;;;5065937;28;20667;-69
2021/09/12 00:33:05;;;;;;;5.70;4.23;;;13.50;99.90;13.60;97030.00;;;;5065391;28;20238;-68
2021/09/12 00:35:55;;;;;;;4.97;4.57;;;13.50;99.90;13.50;97033.00;;;;5065568;28;20683;-68
2021/09/12 00:38:44;;;;;;;4.47;3.30;;;13.50;99.90;13.40;97035.00;;;;5065521;28;20216;-68
2021/09/12 00:41:36;;;;;;;5.10;3.60;;;13.50;99.90;13.50;97029.00;;;;5065282;28;20730;-69
2021/09/12 00:44:26;;;;;;;4.17;3.70;;;13.50;99.90;13.50;97031.00;;;;5066204;28;20195;-69
2021/09/12 00:47:16;;;;;;;6.30;4.47;;;13.50;99.90;13.40;97034.00;;;;5065376;28;20231;-68
2021/09/12 00:50:06;;;;;;;4.93;4.07;;;13.50;99.90;13.40;97030.00;;;;5076428;28;20208;-68
2021/09/12 00:53:02;;;;;;;3.73;3.43;;;13.40;99.90;13.50;97032.00;;;;5065878;28;20703;-72
2021/09/12 00:55:52;;;;;;;5.30;4.80;;;13.40;99.90;13.30;97027.00;;;;5066941;28;20204;-69
2021/09/12 00:58:44;;;;;;;3.97;3.57;;;13.50;99.90;13.20;97017.00;;;;5064558;28;20204;-68
2021/09/12 01:01:35;;;;;;;4.80;4.40;;;13.40;99.90;13.30;97021.00;;;;5063739;28;20234;-69
2021/09/12 01:04:24;;;;;;;4.80;4.30;;;13.40;99.90;13.20;97018.00;;;;5065599;28;20222;-68
2021/09/12 01:07:14;;;;;;;4.47;4.07;;;13.30;99.90;13.20;97013.00;;;;5077898;28;20226;-69
2021/09/12 01:10:06;;;;;;;5.47;4.60;;;13.30;99.90;13.20;97019.00;;;;5065034;28;20243;-69
2021/09/12 01:12:54;;;;;;;4.67;3.97;;;13.30;99.90;12.90;97019.00;;;;5065498;28;20616;-69
2021/09/12 01:15:43;;;;;;;4.80;4.30;;;13.20;99.90;12.80;97016.00;;;;5064937;28;20207;-69
2021/09/12 01:18:32;;;;;;;4.57;4.13;;;13.10;99.90;12.80;97014.00;;;;5065265;28;20200;-69
2021/09/12 01:21:25;;;;;;;5.70;5.13;;;13.10;99.90;13.00;97018.00;;;;5068187;28;20227;-69
2021/09/12 01:24:15;;;;;;;5.13;3.87;;;13.10;99.90;12.90;97021.00;;;;5069606;28;20586;-69
2021/09/12 01:27:05;;;;;;;5.23;4.73;;;13.10;99.90;12.80;97025.00;;;;5065176;28;20215;-69
2021/09/12 01:29:54;;;;;;;5.33;4.93;;;13.00;99.90;12.90;97018.00;;;;5065467;28;20214;-69
2021/09/12 01:32:43;;;;;;;5.43;4.80;;;13.00;99.90;13.00;97023.00;;;;5066318;28;20238;-69
2021/09/12 01:35:32;;;;;;;5.33;4.63;;;13.00;99.90;13.10;97021.00;;;;5068835;28;20208;-68
2021/09/12 01:38:20;;;;;;;4.87;4.37;;;13.00;99.90;13.10;97028.00;;;;5069107;28;20216;-69
2021/09/12 01:41:11;;;;;;;4.47;4.00;;;13.10;99.90;13.20;97019.00;;;;5069225;28;20224;-69
2021/09/12 01:44:03;;;;;;;4.20;3.60;;;13.10;99.90;13.10;97022.00;;;;5068652;28;20240;-69
2021/09/12 01:46:53;;;;;;;8.07;4.73;;;13.10;99.90;13.00;97027.00;;;;5069318;28;20482;-70
2021/09/12 01:49:43;;;;;;;5.13;4.73;;;13.10;99.90;12.90;97019.00;;;;5076604;28;20211;-70
2021/09/12 01:52:32;;;;;;;5.23;4.73;;;13.10;99.90;13.00;97016.00;;;;5070646;28;20224;-70
2021/09/12 01:55:22;;;;;;;5.43;4.93;;;13.10;99.90;13.00;97019.00;;;;5071416;28;20804;-69
2021/09/12 01:58:12;;;;;;;5.93;5.07;;;13.10;99.90;13.20;97019.00;;;;5071063;28;20204;-69
2021/09/12 02:01:01;;;;;;;5.37;4.87;;;13.10;99.90;13.20;97017.00;;;;5071087;28;20239;-69
2021/09/12 02:03:50;;;;;;;4.93;4.53;;;13.20;99.90;12.80;97020.00;;;;5072417;28;20199;-69
2021/09/12 02:06:39;;;;;;;5.00;4.50;;;13.10;99.90;12.70;97017.00;;;;5068532;28;20231;-70
2021/09/12 02:09:28;;;;;;;6.50;4.80;;;12.90;99.90;12.90;97016.00;;;;5069399;28;20571;-69
2021/09/12 02:12:16;;;;;;;4.63;4.23;;;12.90;99.90;12.70;97004.00;;;;5069099;28;20228;-69
2021/09/12 02:15:08;;;;;;;7.90;5.10;;;12.90;99.90;12.70;97003.00;;;;5068083;28;20227;-69
2021/09/12 02:17:57;;;;;;;5.10;4.67;;;12.90;99.90;12.70;97006.00;;;;5067128;28;20604;-69
2021/09/12 02:20:46;;;;;;;4.37;3.93;;;12.80;99.90;12.40;97015.00;;;;5068101;28;20208;-69
2021/09/12 02:23:35;;;;;;;5.50;4.60;;;12.80;99.90;12.60;97008.00;;;;5065849;28;20200;-69
2021/09/12 02:26:23;;;;;;;4.73;4.30;;;12.70;99.90;12.80;97015.00;;;;5068510;28;20306;-70
2021/09/12 02:29:12;;;;;;;7.33;5.10;;;12.70;99.90;12.90;97009.00;;;;5067610;28;20216;-70
2021/09/12 02:32:03;;;;;;;6.90;5.30;;;12.80;99.90;13.00;97016.00;;;;5067605;28;20706;-69
2021/09/12 02:34:52;;;;;;;6.27;4.60;;;12.80;99.90;12.80;97021.00;;;;5067671;28;20607;-69
2021/09/12 02:37:47;;;;;;;5.83;5.33;;;12.80;99.90;12.70;97014.00;;;;5067682;28;20694;-69
2021/09/12 02:40:35;;;;;;;5.90;5.33;;;12.80;99.90;12.60;97022.00;;;;5081582;28;20700;-69
2021/09/12 02:43:24;;;;;;;6.33;5.17;;;12.80;99.90;12.60;97018.00;;;;5067045;28;20570;-69
2021/09/12 02:46:13;;;;;;;5.90;5.03;;;12.70;99.90;12.50;97012.00;;;;5069855;28;20204;-70
2021/09/12 02:49:03;;;;;;;7.27;4.80;;;12.70;99.90;12.50;97015.00;;;;5068656;28;20242;-68
2021/09/12 02:51:52;;;;;;;5.83;5.13;;;12.60;99.90;12.30;97013.00;;;;5070476;28;20237;-70
2021/09/12 02:54:41;;;;;;;5.50;4.93;;;12.60;99.90;12.40;97014.00;;;;5067688;28;20223;-69
2021/09/12 02:57:30;;;;;;;5.87;5.27;;;12.50;99.90;12.60;97013.00;;;;5066186;28;20231;-69
2021/09/12 03:00:20;;;;;;;5.97;5.37;;;12.50;99.90;12.60;97012.00;;;;5066979;28;20196;-69
2021/09/12 03:03:09;;;;;;;5.87;4.83;;;12.60;99.90;12.60;97009.00;;;;5067359;28;20208;-69
2021/09/12 03:05:59;;;;;;;6.10;5.50;;;12.60;99.90;12.60;97011.00;;;;5068416;28;20204;-69
2021/09/12 03:08:48;;;;;;;4.53;4.20;;;12.60;99.90;12.60;97005.00;;;;5067269;28;20200;-69
2021/09/12 03:11:37;;;;;;;10.40;5.13;;;12.60;99.90;12.60;97008.00;;;;5065764;28;20224;-69
2021/09/12 03:14:26;;;;;;;5.13;4.73;;;12.60;99.90;12.60;97005.00;;;;5067532;28;20235;-69
2021/09/12 03:17:15;;;;;;;6.47;5.03;;;12.60;99.90;12.50;97004.00;;;;5066913;28;20667;-69
2021/09/12 03:20:05;;;;;;;6.43;5.37;;;12.60;99.90;12.60;97005.00;;;;5067245;28;20214;-69
2021/09/12 03:22:55;;;;;;;6.73;5.27;;;12.60;99.90;12.70;96998.00;;;;5079830;28;20231;-70
2021/09/12 03:25:44;;;;;;;6.10;5.43;;;12.60;99.90;12.80;97009.00;;;;5066922;28;20212;-69
2021/09/12 03:28:33;;;;;;;5.53;5.03;;;12.70;99.90;12.80;97011.00;;;;5066086;28;20480;-70
2021/09/12 03:31:22;;;;;;;5.87;5.37;;;12.70;99.90;12.70;97007.00;;;;5080076;28;20232;-69
2021/09/12 03:34:11;;;;;;;6.10;5.50;;;12.70;99.90;12.60;97008.00;;;;5066686;28;20224;-69
2021/09/12 03:37:00;;;;;;;6.27;4.47;;;12.70;99.90;12.60;97008.00;;;;5067346;28;20601;-69
2021/09/12 03:39:50;;;;;;;6.50;5.77;;;12.70;99.90;12.60;97006.00;;;;5067443;28;20200;-69
2021/09/12 03:42:39;;;;;;;5.60;4.80;;;12.70;99.90;12.60;97015.00;;;;5066685;28;20235;-69
2021/09/12 03:45:28;;;;;;;5.00;4.50;;;12.70;99.90;12.50;97015.00;;;;5066519;28;20207;-70
2021/09/12 03:48:17;;;;;;;5.33;4.83;;;12.60;99.90;12.30;97014.00;;;;5066879;28;20210;-69
2021/09/12 03:51:06;;;;;;;5.00;4.50;;;12.60;99.90;12.10;97009.00;;;;5095915;28;20224;-69
2021/09/12 03:53:55;;;;;;;5.70;5.20;;;12.50;99.90;12.00;97002.00;;;;5067983;28;20230;-69
2021/09/12 03:56:45;;;;;;;7.37;4.50;;;12.30;99.90;12.00;97000.00;;;;5066895;28;20215;-69
2021/09/12 03:59:34;;;;;;;5.13;4.50;;;12.30;99.90;11.90;97009.00;;;;5067628;28;20208;-70
2021/09/12 04:02:23;;;;;;;6.13;5.20;;;12.20;99.90;11.90;97006.00;;;;5066479;28;20636;-70
2021/09/12 04:05:12;;;;;;;7.77;5.23;;;12.20;99.90;11.80;97005.00;;;;5066812;28;20227;-69
2021/09/12 04:08:01;;;;;;;5.57;4.87;;;12.10;99.90;12.00;97007.00;;;;5065787;28;20572;-69
2021/09/12 04:10:50;;;;;;;6.93;5.37;;;12.10;99.90;12.20;97010.00;;;;5067037;28;20211;-69
2021/09/12 04:13:40;;;;;;;5.17;4.60;;;12.10;99.90;12.10;97006.00;;;;5065725;28;20200;-69
2021/09/12 04:16:29;;;;;;;5.77;5.23;;;12.10;99.90;12.20;97002.00;;;;5066319;28;20203;-69
2021/09/12 04:19:18;;;;;;;5.37;4.87;;;12.20;99.90;12.20;97008.00;;;;5066762;28;20211;-69
2021/09/12 04:22:07;;;;;;;11.93;5.57;;;12.20;99.90;12.10;97003.00;;;;5076167;28;20230;-69
2021/09/12 04:24:56;;;;;;;6.17;5.57;;;12.20;99.90;12.10;97006.00;;;;5065817;28;20199;-68
2021/09/12 04:27:45;;;;;;;6.33;5.27;;;12.20;99.90;12.10;97008.00;;;;5065590;28;20572;-69
2021/09/12 04:30:35;;;;;;;5.23;4.60;;;12.20;99.90;12.10;97004.00;;;;5077237;28;20207;-70
2021/09/12 04:33:24;;;;;;;6.37;5.10;;;12.20;99.90;11.80;97002.00;;;;5084894;28;20191;-69
2021/09/12 04:36:13;;;;;;;8.57;5.47;;;12.10;99.90;11.70;96996.00;;;;5067667;28;20797;-70
2021/09/12 04:39:02;;;;;;;7.47;4.87;;;12.00;99.90;11.90;97002.00;;;;5080105;28;20215;-69
2021/09/12 04:41:51;;;;;;;5.60;5.10;;;12.00;99.90;11.90;97008.00;;;;5068496;28;20231;-70
2021/09/12 04:44:39;;;;;;;5.77;5.10;;;12.00;99.90;11.90;97015.00;;;;5066933;28;20228;-70
2021/09/12 04:47:30;;;;;;;6.20;5.60;;;12.10;99.90;12.10;97008.00;;;;5079402;28;20774;-69
2021/09/12 04:50:19;;;;;;;5.90;5.30;;;12.10;99.90;12.10;97011.00;;;;5081638;28;20854;-69
2021/09/12 04:53:08;;;;;;;6.33;5.73;;;12.10;99.90;12.30;97007.00;;;;5069551;28;20223;-69
2021/09/12 04:55:56;;;;;;;6.93;5.63;;;12.20;99.90;12.30;97008.00;;;;5065206;28;20199;-70
2021/09/12 04:58:45;;;;;;;7.07;6.17;;;12.20;99.90;12.40;97013.00;;;;5064474;28;20214;-69
2021/09/12 05:01:34;;;;;;;6.87;5.43;;;12.30;99.90;12.20;97014.00;;;;5077806;28;20227;-69
2021/09/12 05:04:24;;;;;;;6.80;5.80;;;12.30;99.90;12.10;97013.00;;;;5079998;28;20206;-69
2021/09/12 05:07:13;;;;;;;6.90;5.80;;;12.30;99.90;12.10;97014.00;;;;5078855;28;20196;-69
2021/09/12 05:10:02;;;;;;;6.70;5.10;;;12.30;99.90;12.20;97023.00;;;;5069520;28;20211;-70
2021/09/12 05:12:51;;;;;;;9.87;5.00;;;12.30;99.90;11.80;97009.00;;;;5084535;28;20215;-69
2021/09/12 05:15:42;;;;;;;6.47;5.87;;;12.20;99.90;11.80;97008.00;;;;5072545;28;20196;-69
2021/09/12 05:18:31;;;;;;;5.37;4.80;;;12.20;99.90;11.80;97007.00;;;;5068144;28;20211;-69
2021/09/12 05:21:21;;;;;;;6.40;5.63;;;12.10;99.90;12.00;97011.00;;;;5073419;28;20597;-69
2021/09/12 05:24:10;;;;;;;8.30;5.93;;;12.10;99.90;12.20;97034.00;;;;5073264;28;20203;-69
2021/09/12 05:26:59;;;;;;;5.87;5.27;;;12.20;99.90;12.30;97020.00;;;;5068686;28;20207;-69
2021/09/12 05:29:48;;;;;;;8.07;5.67;;;12.30;99.90;12.50;97018.00;;;;5070686;28;20207;-69
2021/09/12 05:32:38;;;;;;;6.47;5.20;;;12.30;99.90;12.30;97015.00;;;;5069077;28;20231;-69
2021/09/12 05:35:27;;;;;;;5.90;5.10;;;12.40;99.90;12.50;97008.00;;;;5069115;28;20204;-69
2021/09/12 05:38:17;;;;;;;5.47;4.97;;;12.50;99.90;12.60;97020.00;;;;5069120;28;20242;-69
2021/09/12 05:41:06;;;;;;;5.73;4.93;;;12.60;99.90;12.50;97023.00;;;;5068306;28;20220;-70
2021/09/12 05:43:55;;;;;;;6.50;5.43;;;12.60;99.90;12.50;97022.00;;;;5082442;28;20210;-69
2021/09/12 05:46:45;;;;;;;6.40;5.43;;;12.70;99.90;12.70;97011.00;;;;5080304;28;20605;-70
2021/09/12 05:49:34;;;;;;;6.63;4.70;;;12.70;99.90;13.10;97007.00;;;;5090505;28;20599;-70
2021/09/12 05:52:23;;;;;;;6.20;5.17;;;12.90;99.90;13.10;97008.00;;;;5069398;28;20244;-70
2021/09/12 05:55:13;;;;;;;5.53;4.90;;;13.70;99.90;13.20;97008.00;;;;5068349;28;20196;-70
2021/09/12 05:58:02;;;;;;;7.80;5.93;;;13.10;99.90;13.30;97009.00;;;;5072082;28;20575;-69
2021/09/12 06:00:51;;;;;;;6.50;5.50;;;13.20;99.90;13.60;97002.00;;;;5094026;28;20215;-71
2021/09/12 06:03:40;;;;;;;6.53;5.60;;;13.40;99.90;13.70;97016.00;;;;5085539;28;20204;-71
2021/09/12 06:06:29;;;;;;;6.97;6.13;;;13.60;99.90;13.70;97010.00;;;;5086271;28;20219;-70
2021/09/12 06:09:17;;;;;;;7.63;6.00;;;13.70;99.90;13.90;97012.00;;;;5068500;28;20200;-71
2021/09/12 06:12:09;;;;;;;7.53;5.20;;;13.90;99.90;14.20;97016.00;;;;5067350;28;20223;-70
2021/09/12 06:14:58;;;;;;;7.27;5.77;;;14.00;99.90;14.10;97013.00;;;;5069115;28;20619;-70
2021/09/12 06:17:47;;;;;;;6.47;5.70;;;14.10;99.90;14.20;97012.00;;;;5067389;28;20204;-70
2021/09/12 06:20:36;;;;;;;7.90;6.73;;;14.20;99.90;14.10;97019.00;;;;5067771;28;20216;-69
2021/09/12 06:23:25;;;;;;;7.17;6.33;;;14.30;99.90;14.50;97025.00;;;;5067902;28;20204;-69
2021/09/12 06:26:14;;;;;;;7.43;6.63;;;14.40;99.90;14.40;97024.00;;;;5082404;28;20223;-70
2021/09/12 06:29:05;;;;;;;10.97;8.03;;;14.40;99.90;14.60;97020.00;;;;5083643;28;20195;-69
2021/09/12 06:31:54;;;;;;;8.17;7.07;;;14.50;99.90;14.50;97020.00;;;;5085759;28;20605;-69
2021/09/12 06:34:43;;;;;;;7.00;6.07;;;14.60;99.90;14.70;97020.00;;;;5085050;28;20199;-69
2021/09/12 06:37:32;;;;;;;7.10;6.40;;;14.60;99.90;14.40;97019.00;;;;5083081;28;20204;-69
2021/09/12 06:40:23;;;;;;;8.90;7.10;;;14.60;99.90;14.70;97021.00;;;;5068275;28;20218;-69
2021/09/12 06:43:12;;;;;;;9.53;7.47;;;14.70;99.90;14.70;97015.00;;;;5090643;28;20202;-69
2021/09/12 06:46:02;;;;;;;7.63;6.73;;;14.70;99.90;14.90;97018.00;;;;5083823;28;20227;-69
2021/09/12 06:48:51;;;;;;;7.63;6.93;;;14.80;99.90;15.20;97001.00;;;;5086700;28;20260;-69
2021/09/12 06:51:40;;;;;;;8.40;7.60;;;14.90;99.90;15.40;96998.00;;;;5094064;28;20215;-69
2021/09/12 06:54:29;;;;;;;9.70;8.30;;;15.10;99.90;15.60;96993.00;;;;5068053;28;20208;-69
2021/09/12 06:57:18;;;;;;;9.07;7.83;;;15.30;99.90;15.60;97001.00;;;;5069158;28;20211;-70
2021/09/12 07:00:10;;;;;;;10.23;8.83;;;15.40;99.90;15.80;97009.00;;;;5084023;28;20218;-71
2021/09/12 07:03:00;;;;;;;7.93;6.93;;;15.50;99.90;15.90;97008.00;;;;5067020;28;20753;-71
2021/09/12 07:05:49;;;;;;;10.53;8.07;;;15.70;99.90;16.10;97000.00;;;;5069312;28;20227;-70
2021/09/12 07:08:38;;;;;;;9.30;8.33;;;15.80;99.90;16.40;97008.00;;;;5067227;28;20204;-71
2021/09/12 07:11:27;;;;;;;8.63;7.60;;;16.00;99.90;16.70;97010.00;;;;5066138;28;20234;-70
2021/09/12 07:14:16;;;;;;;9.17;7.47;;;16.20;99.90;16.80;97004.00;;;;5067944;28;20226;-70
2021/09/12 07:17:06;;;;;;;9.80;8.40;;;16.40;99.90;17.10;97003.00;;;;5066584;28;20204;-69
2021/09/12 07:19:56;;;;;;;11.07;8.77;;;16.60;99.90;17.30;97004.00;;;;5066327;28;20208;-70
2021/09/12 07:22:46;;;;;;;8.17;7.30;;;16.80;99.90;17.70;97017.00;;;;5069419;28;20234;-70
2021/09/12 07:25:36;;;;;;;10.40;8.93;;;17.10;99.90;17.80;97013.00;;;;5066625;28;20199;-70
2021/09/12 07:28:25;;;;;;;9.03;8.13;;;17.30;99.90;17.90;97017.00;;;;5065777;28;20306;-69
2021/09/12 07:31:14;;;;;;;10.03;8.50;;;17.50;99.90;18.10;97021.00;;;;5065654;28;20746;-69
2021/09/12 07:34:04;;;;;;;9.23;8.33;;;17.60;99.90;18.10;97027.00;;;;5067937;28;20216;-70
2021/09/12 07:36:54;;;;;;;10.70;9.07;;;17.80;99.90;18.30;97022.00;;;;5065971;28;20564;-70
2021/09/12 07:39:43;;;;;;;9.87;8.20;;;17.90;99.90;18.30;97026.00;;;;5073162;28;20195;-69
2021/09/12 07:42:32;;;;;;;9.70;7.87;;;18.00;99.90;18.40;97024.00;;;;5079660;28;20215;-69
2021/09/12 07:45:21;;;;;;;9.67;8.70;;;18.00;99.90;18.50;97034.00;;;;5066568;28;20208;-69
2021/09/12 07:48:10;;;;;;;9.90;8.60;;;18.10;99.90;19.00;97029.00;;;;5067637;28;20212;-69
2021/09/12 07:51:02;;;;;;;10.17;7.80;;;18.30;99.90;19.10;97036.00;;;;5088003;28;20227;-69
2021/09/12 07:53:52;;;;;;;10.07;8.20;;;18.40;99.90;18.90;97024.00;;;;5091260;28;20683;-69
2021/09/12 07:56:41;;;;;;;8.97;8.10;;;18.60;99.90;19.50;97024.00;;;;5091626;28;20206;-70
2021/09/12 07:59:30;;;;;;;8.70;7.80;;;18.80;99.90;19.60;97030.00;;;;5069644;28;20580;-69
2021/09/12 08:02:19;;;;;;;8.43;6.67;;;19.00;99.90;19.90;97020.00;;;;5068023;28;20242;-69
2021/09/12 08:05:10;;;;;;;8.83;7.93;;;19.20;99.90;20.50;97035.00;;;;5066659;28;20931;-69
2021/09/12 08:07:59;;;;;;;9.63;8.17;;;19.50;99.90;20.60;97031.00;;;;5072188;28;20223;-70
2021/09/12 08:10:49;;;;;;;10.33;8.30;;;19.70;99.90;20.90;97030.00;;;;5078167;28;20682;-68
2021/09/12 08:13:38;;;;;;;9.57;8.00;;;20.00;99.90;21.00;97036.00;;;;5079670;28;20213;-69
2021/09/12 08:16:27;;;;;;;8.33;7.47;;;20.20;99.90;21.30;97041.00;;;;5084386;28;20199;-69
2021/09/12 08:19:16;;;;;;;9.03;8.13;;;20.40;99.90;21.40;97030.00;;;;5073197;28;20200;-69
2021/09/12 08:22:05;;;;;;;8.57;7.67;;;20.60;99.90;21.60;97021.00;;;;5075593;28;20234;-70
2021/09/12 08:24:54;;;;;;;9.23;7.13;;;20.80;99.90;21.80;97033.00;;;;5082349;28;20595;-69
2021/09/12 08:27:44;;;;;;;9.70;7.30;;;21.00;99.90;21.70;97024.00;;;;5077754;28;20254;-69
2021/09/12 08:30:33;;;;;;;7.50;6.80;;;21.10;99.90;21.80;97029.00;;;;5065799;28;20204;-69
2021/09/12 08:33:22;;;;;;;7.73;6.93;;;21.20;99.90;21.90;97025.00;;;;5065885;28;20192;-69
2021/09/12 08:36:11;;;;;;;8.33;7.47;;;21.30;99.90;21.80;97035.00;;;;5065792;28;20235;-69
2021/09/12 08:39:00;;;;;;;9.33;7.73;;;21.30;99.90;21.90;97029.00;;;;5065369;28;20204;-69
2021/09/12 08:41:49;;;;;;;8.30;7.37;;;21.40;99.90;22.20;97027.00;;;;5071071;28;20231;-70
2021/09/12 08:44:40;;;;;;;8.33;7.50;;;21.50;99.90;22.40;97022.00;;;;5073095;28;20211;-67
2021/09/12 08:47:30;;;;;;;8.73;7.43;;;21.60;99.90;22.60;97024.00;;;;5079495;28;20553;-69
2021/09/12 08:50:20;;;;;;;8.73;7.90;;;21.80;99.90;22.80;97023.00;;;;5079670;28;20206;-69
2021/09/12 08:53:08;;;;;;;7.43;6.70;;;22.00;99.90;22.70;97021.00;;;;5069750;28;20206;-68
2021/09/12 08:55:57;;;;;;;8.77;7.97;;;22.10;99.90;23.00;97013.00;;;;5068559;28;20208;-68
2021/09/12 08:58:51;;;;;;;9.97;6.90;;;22.30;99.90;23.20;97026.00;;;;5078871;28;20196;-68
2021/09/12 09:01:41;;;;;;;7.20;6.50;;;22.40;99.90;23.20;97025.00;;;;5077003;28;20234;-69
2021/09/12 09:04:34;;;;;;;9.90;8.43;;;22.50;99.90;23.60;97009.00;;;;5090840;28;20202;-69
2021/09/12 09:07:31;;;;;;;7.50;6.80;;;22.70;99.90;23.80;97021.00;;;;5087898;28;20618;-68
2021/09/12 09:10:21;;;;;;;12.17;7.70;;;22.90;99.90;23.90;97011.00;;;;5075172;28;20212;-69
2021/09/12 09:13:29;;;;;;;8.37;6.70;;;23.00;99.90;24.00;97011.00;;;;5068365;28;20293;-68
2021/09/12 09:16:28;;;;;;;8.53;6.80;;;23.20;99.90;24.20;97010.00;;;;5079953;28;20207;-68
2021/09/12 09:19:19;;;;;;;7.83;6.63;;;23.40;99.90;24.20;97009.00;;;;5081387;28;20202;-69
2021/09/12 09:22:29;;;;;;;7.57;6.77;;;23.50;99.90;24.50;97007.00;;;;5075011;28;20231;-68
2021/09/12 09:25:20;;;;;;;6.83;6.13;;;23.60;99.90;24.60;97007.00;;;;5082403;28;20255;-69
2021/09/12 09:28:12;;;;;;;7.60;6.20;;;23.80;99.90;24.70;97008.00;;;;5079789;28;21179;-68
2021/09/12 09:31:02;;;;;;;6.57;5.97;;;23.90;99.90;24.40;96998.00;;;;5082274;28;20223;-69
2021/09/12 09:33:51;;;;;;;7.93;6.73;;;24.00;99.90;24.70;96998.00;;;;5082827;28;20599;-69
2021/09/12 09:36:41;;;;;;;6.43;5.70;;;24.00;99.90;25.00;96988.00;;;;5083892;28;20202;-69
2021/09/12 09:39:37;;;;;;;6.60;6.00;;;24.10;99.90;25.30;96996.00;;;;5074161;28;20207;-69
2021/09/12 09:42:37;;;;;;;6.33;5.53;;;24.40;99.90;25.50;96997.00;;;;5081894;28;20246;-69
2021/09/12 09:45:26;;;;;;;5.70;5.20;;;24.50;99.90;25.70;96983.00;;;;5080488;28;20622;-68
2021/09/12 09:48:15;;;;;;;6.67;4.83;;;24.70;99.90;25.90;96985.00;;;;5084259;28;20234;-69
2021/09/12 09:51:05;;;;;;;7.47;6.27;;;24.90;99.90;26.20;96988.00;;;;5084068;28;20223;-69
2021/09/12 09:53:58;;;;;;;4.77;4.37;;;25.10;99.90;26.30;96979.00;;;;5083713;28;20208;-69
2021/09/12 09:56:48;;;;;;;5.00;4.40;;;25.30;96.70;26.80;96978.00;;;;5085485;28;20200;-69
2021/09/12 09:59:37;;;;;;;5.60;4.90;;;25.50;96.70;27.10;96970.00;;;;5074181;28;20210;-69
2021/09/12 10:02:26;;;;;;;5.30;4.60;;;25.80;95.90;27.30;96969.00;;;;5075040;28;20230;-69
2021/09/12 10:05:17;;;;;;;6.87;4.13;;;26.00;94.30;27.20;96967.00;;;;5072930;28;20200;-69
2021/09/12 10:08:08;;;;;;;7.57;4.20;;;26.20;90.40;27.60;96960.00;;;;5081545;28;20229;-68
2021/09/12 10:10:59;;;;;;;4.83;4.43;;;26.40;89.30;28.00;96951.00;;;;5086967;28;20209;-68
2021/09/12 10:13:49;;;;;;;5.87;5.37;;;26.60;89.50;27.40;96949.00;;;;5073659;28;20677;-69
2021/09/12 10:16:39;;;;;;;5.70;4.63;;;26.80;81.90;27.60;96947.00;;;;5084913;28;20212;-69
2021/09/12 10:19:34;;;;;;;6.33;4.87;;;26.90;80.70;26.80;96933.00;;;;5084882;28;20202;-69
2021/09/12 10:22:22;;;;;;;6.93;6.33;;;27.00;79.00;28.00;96941.00;;;;5079596;28;20230;-69
2021/09/12 10:25:15;;;;;;;8.27;5.97;;;27.00;79.40;29.00;96929.00;;;;5084390;28;20206;-70
2021/09/12 10:28:07;;;;;;;5.43;4.87;;;27.30;81.80;29.60;96929.00;;;;5079888;28;20750;-70
2021/09/12 10:30:56;;;;;;;7.50;4.80;;;27.70;79.90;29.60;96955.00;;;;5087289;28;20202;-70
2021/09/12 10:34:08;;;;;;;6.17;4.87;;;28.10;77.30;29.30;96953.00;;;;5074256;28;20214;-69
2021/09/12 10:37:31;;;;;;;5.63;4.77;;;28.20;74.70;28.40;96950.00;;;;5067144;28;20217;-69
2021/09/12 10:40:20;;;;;;;7.40;4.87;;;28.10;68.50;27.30;96954.00;;;;5080630;28;20209;-69
2021/09/12 10:43:11;;;;;;;7.73;5.80;;;27.60;69.40;27.30;96953.00;;;;5083485;28;20208;-68
2021/09/12 10:46:27;;;;;;;6.30;4.87;;;27.20;71.80;27.00;96958.00;;;;5086630;28;20847;-69
2021/09/12 10:49:16;;;;;;;8.50;5.20;;;26.90;72.00;26.90;96956.00;;;;5081749;28;20221;-69
2021/09/12 10:52:09;;;;;;;6.53;5.03;;;26.70;72.90;26.90;96956.00;;;;5082882;28;20239;-69
2021/09/12 10:55:08;;;;;;;7.83;5.80;;;26.50;73.90;26.70;96959.00;;;;5088305;28;20219;-69
2021/09/12 10:58:00;;;;;;;7.03;5.27;;;26.30;74.80;26.40;96952.00;;;;5079891;28;20216;-69
2021/09/12 11:00:50;;;;;;;8.07;5.27;;;26.10;72.90;26.30;96952.00;;;;5082551;28;20200;-69
2021/09/12 11:03:46;;;;;;;4.70;4.30;;;26.00;73.50;26.20;96954.00;;;;5080529;28;20248;-69
2021/09/12 11:06:37;;;;;;;5.17;4.43;;;25.80;73.90;26.20;96951.00;;;;5072744;28;20212;-69
2021/09/12 11:09:27;;;;;;;6.90;5.27;;;25.70;75.00;26.20;96948.00;;;;5068016;28;20702;-69
2021/09/12 11:12:17;;;;;;;6.50;5.70;;;25.70;76.40;26.20;96941.00;;;;5067667;28;20229;-69
2021/09/12 11:15:07;;;;;;;9.33;5.73;;;25.60;76.20;25.70;96937.00;;;;5086335;28;20221;-69
2021/09/12 11:17:57;;;;;;;8.20;5.20;;;25.60;74.60;26.00;96935.00;;;;5080698;28;20199;-69
2021/09/12 11:20:49;;;;;;;6.70;4.67;;;25.50;75.60;25.90;96939.00;;;;5084470;28;20210;-68
2021/09/12 11:23:40;;;;;;;7.03;5.47;;;25.40;78.20;24.90;96937.00;;;;5087363;28;20204;-69
2021/09/12 11:26:30;;;;;;;6.53;5.03;;;25.30;80.20;24.70;96934.00;;;;5083373;28;20215;-69
2021/09/12 11:29:21;;;;;;;5.53;4.60;;;25.00;79.30;24.60;96937.00;;;;5068245;28;20228;-69
2021/09/12 11:32:13;;;;;;;5.90;5.20;;;24.80;81.60;24.20;96932.00;;;;5075082;28;20228;-70
2021/09/12 11:35:04;;;;;;;6.07;5.37;;;24.60;83.70;24.20;96935.00;;;;5068773;28;20215;-70
2021/09/12 11:38:10;;;;;;;5.60;4.90;;;24.30;84.60;24.50;96926.00;;;;5068347;28;20585;-71
2021/09/12 11:41:00;;;;;;;5.20;4.70;;;24.20;86.60;24.70;96926.00;;;;5069371;28;20203;-71
2021/09/12 11:43:57;;;;;;;6.40;4.53;;;24.30;85.80;24.10;96897.00;;;;5084890;28;20199;-73
2021/09/12 11:46:48;;;;;;;7.00;6.37;;;24.20;90.80;24.70;96897.00;;;;5083949;28;20705;-69
2021/09/12 11:49:38;;;;;;;5.30;4.40;;;24.30;91.30;24.90;96925.00;;;;5070243;28;20231;-70
2021/09/12 11:52:32;;;;;;;5.37;4.87;;;24.40;90.70;25.20;96915.00;;;;5066687;28;20224;-69
2021/09/12 11:55:23;;;;;;;5.37;4.87;;;24.50;90.90;24.90;96917.00;;;;5066503;28;20207;-70
2021/09/12 11:58:12;;;;;;;5.43;4.90;;;24.60;90.30;25.40;96915.00;;;;5069570;28;20587;-70
2021/09/12 12:01:01;;;;;;;5.27;4.77;;;24.70;90.40;25.60;96921.00;;;;5067010;28;20231;-70
2021/09/12 12:03:51;;;;;;;5.73;5.20;;;24.80;90.70;25.80;96906.00;;;;5068842;28;20219;-69
2021/09/12 12:06:45;;;;;;;5.50;5.00;;;24.90;87.40;25.50;96904.00;;;;5075869;28;20208;-70
2021/09/12 12:09:44;;;;;;;5.93;5.13;;;25.10;89.10;26.00;96899.00;;;;5077160;28;20232;-70
2021/09/12 12:12:38;;;;;;;5.90;4.83;;;25.10;90.00;26.00;96889.00;;;;5083186;28;20218;-72
2021/09/12 12:15:36;;;;;;;5.60;4.53;;;25.20;90.00;26.20;96894.00;;;;5086126;28;20215;-70
2021/09/12 12:18:25;;;;;;;5.53;4.97;;;25.30;90.20;26.60;96885.00;;;;5064959;28;20819;-70
2021/09/12 12:21:15;;;;;;;6.10;4.50;;;25.50;90.20;27.00;96883.00;;;;5066491;28;20235;-68
2021/09/12 12:24:14;;;;;;;6.37;5.77;;;25.80;90.00;27.60;96883.00;;;;5080106;28;20209;-69
2021/09/12 12:27:08;;;;;;;8.77;4.80;;;26.10;87.80;28.20;96864.00;;;;5065144;28;20205;-69
2021/09/12 12:30:01;;;;;;;4.83;4.43;;;26.50;85.90;28.60;96813.00;;;;5065639;28;20706;-69
2021/09/12 12:32:49;;;;;;;6.10;4.70;;;26.90;84.20;30.50;96815.00;;;;5066606;28;20228;-70
2021/09/12 12:35:39;;;;;;;7.15;5.85;;;27.60;83.70;31.30;96809.00;;;;5065983;28;20211;-69
2021/09/12 12:38:28;;;;;;;6.18;5.57;;;29.00;76.20;31.60;96805.00;;;;5064512;28;20206;-71